EGNX/EMA METAR and TAF weather

Enter ICAO airport designator
Station Type Date Time Source
EGNX METAR 2018/12/13 00:20 UTC NOAA

EGNX 130020Z 11009KT 9999 FEW035 01/M01 Q1018


Station Type Date Time Source
EGNX Decoded METAR 2018/12/13 00:20 UTC NOAA

East Midlands, United Kingdom (EGNX) 52-50N 001-20W
Dec 12, 2018 - 07:20 PM EST / 2018.12.13 0020 UTC
Wind: from the ESE (110 degrees) at 10 MPH (9 KT):0
Visibility: greater than 7 mile(s):0
Sky conditions: mostly clear
Temperature: 33 F (1 C)
Windchill: 24 F (-4 C):1
Dew Point: 30 F (-1 C)
Relative Humidity: 86%
Pressure (altimeter): 30.06 in. Hg (1018 hPa)
ob: EGNX 130020Z 11009KT 9999 FEW035 01/M01 Q1018
cycle: 0

Station Type Date Time Source
EGNX TAF 2018/12/12 18:09 UTC NOAA

TAF EGNX 121655Z 1218/1318 12010KT 9999 SCT030
BECMG 1315/1318 06006KT


Example: see airport list